createdAt,value
2023-05-05T00:00:17.197Z,4.60
2023-05-05T00:00:38.285Z,4.80
2023-05-05T00:00:59.329Z,4.80
2023-05-05T00:01:20.397Z,4.40
2023-05-05T00:01:41.451Z,4.70
2023-05-05T00:02:02.527Z,4.90
2023-05-05T00:02:23.581Z,4.90
2023-05-05T00:02:44.718Z,4.80
2023-05-05T00:03:05.897Z,4.20
2023-05-05T00:03:27.063Z,4.50
2023-05-05T00:03:48.218Z,4.70
2023-05-05T00:04:09.333Z,4.50
2023-05-05T00:04:30.412Z,4.30
2023-05-05T00:04:51.481Z,4.50
2023-05-05T00:05:12.578Z,4.70
2023-05-05T00:05:33.620Z,4.50
2023-05-05T00:05:54.694Z,4.50
2023-05-05T00:06:15.796Z,4.60
2023-05-05T00:06:36.824Z,4.50
2023-05-05T00:06:57.867Z,4.80
2023-05-05T00:07:18.926Z,4.80
2023-05-05T00:07:39.987Z,4.60
2023-05-05T00:08:01.077Z,4.60
2023-05-05T00:08:22.113Z,4.70
2023-05-05T00:08:43.186Z,4.30
2023-05-05T00:09:04.243Z,4.70
2023-05-05T00:09:25.300Z,4.70
2023-05-05T00:09:46.426Z,4.80
2023-05-05T00:10:07.678Z,4.60
2023-05-05T00:10:28.934Z,5.10
2023-05-05T00:10:49.987Z,4.80
2023-05-05T00:11:11.113Z,5.50
2023-05-05T00:11:32.169Z,4.80
2023-05-05T00:11:53.225Z,4.80
2023-05-05T00:12:14.295Z,4.70
2023-05-05T00:12:35.415Z,4.70
2023-05-05T00:12:56.533Z,4.70
2023-05-05T00:13:17.681Z,4.50
2023-05-05T00:13:38.731Z,4.50
2023-05-05T00:13:59.784Z,4.60
2023-05-05T00:14:20.854Z,4.60
2023-05-05T00:14:41.917Z,4.90
2023-05-05T00:15:03.013Z,4.50
2023-05-05T00:15:24.118Z,4.60
2023-05-05T00:15:45.166Z,4.80
2023-05-05T00:16:06.252Z,4.60
2023-05-05T00:16:27.373Z,4.40
2023-05-05T00:16:48.497Z,4.80
2023-05-05T00:17:09.611Z,4.90
2023-05-05T00:17:30.725Z,4.60
2023-05-05T00:17:51.812Z,4.70
2023-05-05T00:18:12.839Z,4.40
2023-05-05T00:18:33.920Z,4.20
2023-05-05T00:18:54.963Z,4.50
2023-05-05T00:19:16.043Z,4.60
2023-05-05T00:19:42.007Z,4.60
2023-05-05T00:20:03.113Z,4.50
2023-05-05T00:20:24.371Z,4.60
2023-05-05T00:20:45.423Z,5.00
2023-05-05T00:21:06.504Z,4.70
2023-05-05T00:21:27.542Z,4.40
2023-05-05T00:21:48.582Z,4.40
2023-05-05T00:22:09.644Z,4.70
2023-05-05T00:22:30.700Z,4.50
2023-05-05T00:22:51.759Z,4.80
2023-05-05T00:23:12.825Z,4.90
2023-05-05T00:23:33.876Z,4.70
2023-05-05T00:23:54.933Z,4.90
2023-05-05T00:24:16.012Z,4.80
2023-05-05T00:24:37.054Z,4.60
2023-05-05T00:24:58.159Z,4.90
2023-05-05T00:25:19.406Z,4.70
2023-05-05T00:25:40.506Z,4.90
2023-05-05T00:26:01.593Z,4.80
2023-05-05T00:26:22.643Z,4.90
2023-05-05T00:26:43.700Z,4.50
2023-05-05T00:27:04.799Z,4.50
2023-05-05T00:27:25.907Z,4.80
2023-05-05T00:27:47.005Z,5.10
2023-05-05T00:28:08.060Z,5.00
2023-05-05T00:28:29.142Z,4.60
2023-05-05T00:28:50.187Z,4.90
2023-05-05T00:29:11.275Z,5.10
2023-05-05T00:29:32.322Z,5.10
2023-05-05T00:29:53.372Z,4.70
2023-05-05T00:30:14.437Z,4.70
2023-05-05T00:30:35.524Z,4.80
2023-05-05T00:30:56.854Z,4.90
2023-05-05T00:31:17.932Z,4.50
2023-05-05T00:31:39.066Z,5.20
2023-05-05T00:32:00.155Z,4.90
2023-05-05T00:32:21.250Z,4.80
2023-05-05T00:32:42.335Z,4.80
2023-05-05T00:33:03.447Z,4.60
2023-05-05T00:33:24.512Z,4.80
2023-05-05T00:33:45.622Z,4.80
2023-05-05T00:34:06.668Z,5.00
2023-05-05T00:34:27.733Z,4.70
2023-05-05T00:34:48.800Z,4.90
2023-05-05T00:35:09.900Z,5.00
2023-05-05T00:35:30.925Z,4.90
2023-05-05T00:35:52.007Z,4.90
2023-05-05T00:36:13.312Z,5.20
2023-05-05T00:36:34.370Z,4.90
2023-05-05T00:36:55.406Z,4.80
2023-05-05T00:37:16.472Z,4.60
2023-05-05T00:37:37.530Z,4.80
2023-05-05T00:37:58.577Z,4.90
2023-05-05T00:38:19.645Z,4.80
2023-05-05T00:38:40.685Z,4.40
2023-05-05T00:39:01.757Z,4.60
2023-05-05T00:39:22.822Z,4.90
2023-05-05T00:39:43.883Z,5.20
2023-05-05T00:40:05.071Z,5.00
2023-05-05T00:40:26.174Z,5.30
2023-05-05T00:40:47.229Z,4.90
2023-05-05T00:41:08.307Z,4.80
2023-05-05T00:41:29.421Z,5.20
2023-05-05T00:41:50.469Z,5.40
2023-05-05T00:42:11.540Z,5.30
2023-05-05T00:42:32.588Z,5.20
2023-05-05T00:42:53.650Z,5.10
2023-05-05T00:43:14.689Z,5.20
2023-05-05T00:43:35.768Z,5.00
2023-05-05T00:43:56.848Z,5.00
2023-05-05T00:44:17.903Z,5.00
2023-05-05T00:44:38.966Z,4.80
2023-05-05T00:45:00.001Z,4.90
2023-05-05T00:45:21.067Z,5.10
2023-05-05T00:45:42.118Z,4.80
2023-05-05T00:46:03.242Z,4.80
2023-05-05T00:46:24.559Z,5.10
2023-05-05T00:46:45.872Z,5.10
2023-05-05T00:47:06.922Z,5.20
2023-05-05T00:47:27.999Z,5.40
2023-05-05T00:47:49.070Z,5.10
2023-05-05T00:48:10.246Z,5.00
2023-05-05T00:48:31.306Z,5.00
2023-05-05T00:48:52.419Z,4.90
2023-05-05T00:49:13.572Z,4.90
2023-05-05T00:49:34.695Z,4.80
2023-05-05T00:49:55.786Z,4.80
2023-05-05T00:50:16.874Z,4.60
2023-05-05T00:50:37.921Z,4.70
2023-05-05T00:50:58.976Z,5.30
2023-05-05T00:51:20.045Z,5.00
2023-05-05T00:51:41.322Z,4.70
2023-05-05T00:52:02.618Z,4.70
2023-05-05T00:52:23.670Z,5.10
2023-05-05T00:52:44.731Z,5.10
2023-05-05T00:53:05.846Z,5.00
2023-05-05T00:53:26.884Z,5.20
2023-05-05T00:53:47.950Z,5.10
2023-05-05T00:54:09.006Z,4.80
2023-05-05T00:54:30.056Z,5.10
2023-05-05T00:54:51.123Z,4.90
2023-05-05T00:55:12.206Z,5.20
2023-05-05T00:55:33.255Z,5.30
2023-05-05T00:55:54.302Z,5.00
2023-05-05T00:56:15.352Z,4.60
2023-05-05T00:56:36.408Z,5.10
2023-05-05T00:56:57.516Z,4.80
2023-05-05T00:57:18.797Z,5.00
2023-05-05T00:57:39.865Z,4.60
2023-05-05T00:58:00.906Z,4.60
2023-05-05T00:58:21.964Z,4.80
2023-05-05T00:58:43.031Z,4.80
2023-05-05T00:59:04.113Z,4.60
2023-05-05T00:59:25.187Z,4.70
2023-05-05T00:59:46.248Z,5.30
2023-05-05T01:00:07.469Z,5.00
2023-05-05T01:00:28.657Z,4.90
2023-05-05T01:00:49.716Z,4.90
2023-05-05T01:01:10.829Z,5.00
2023-05-05T01:01:32.163Z,5.20
2023-05-05T01:01:53.230Z,5.20
2023-05-05T01:02:14.523Z,4.90
2023-05-05T01:02:35.652Z,4.60
2023-05-05T01:02:56.788Z,4.90
2023-05-05T01:03:17.925Z,4.90
2023-05-05T01:03:39.032Z,5.10
2023-05-05T01:04:00.277Z,5.40
2023-05-05T01:04:21.422Z,5.50
2023-05-05T01:04:42.497Z,4.80
2023-05-05T01:05:03.539Z,4.70
2023-05-05T01:05:24.592Z,4.90
2023-05-05T01:05:45.660Z,4.90
2023-05-05T01:06:06.710Z,5.10
2023-05-05T01:06:27.778Z,5.20
2023-05-05T01:06:48.827Z,4.80
2023-05-05T01:07:09.901Z,5.10
2023-05-05T01:07:30.991Z,5.20
2023-05-05T01:07:52.273Z,5.00
2023-05-05T01:08:13.316Z,4.60
2023-05-05T01:08:34.376Z,4.60
2023-05-05T01:08:55.430Z,4.80
2023-05-05T01:09:16.481Z,5.10
2023-05-05T01:09:37.540Z,5.10
2023-05-05T01:10:07.568Z,4.70
2023-05-05T01:10:26.076Z,4.60
2023-05-05T01:10:47.396Z,5.00
2023-05-05T01:11:08.454Z,5.20
2023-05-05T01:11:29.508Z,4.90
2023-05-05T01:11:50.563Z,4.90
2023-05-05T01:12:11.640Z,4.60
2023-05-05T01:12:32.766Z,4.80
2023-05-05T01:12:54.077Z,4.80
2023-05-05T01:13:15.225Z,5.00
2023-05-05T01:13:36.297Z,4.90
2023-05-05T01:13:57.363Z,4.70
2023-05-05T01:14:18.417Z,4.70
2023-05-05T01:14:39.463Z,5.40
2023-05-05T01:15:00.541Z,5.10
2023-05-05T01:15:21.583Z,5.20
2023-05-05T01:15:42.662Z,5.00
2023-05-05T01:16:03.716Z,4.90
2023-05-05T01:16:24.806Z,4.60
2023-05-05T01:16:45.828Z,5.00
2023-05-05T01:17:06.922Z,4.80
2023-05-05T01:17:27.953Z,4.90
2023-05-05T01:17:49.292Z,5.00
2023-05-05T01:18:10.590Z,5.10
2023-05-05T01:18:31.650Z,5.20
2023-05-05T01:18:52.702Z,4.70
2023-05-05T01:19:13.781Z,5.10
2023-05-05T01:19:34.812Z,5.20
2023-05-05T01:19:55.877Z,4.70
2023-05-05T01:20:16.951Z,5.10
2023-05-05T01:20:38.017Z,5.00
2023-05-05T01:20:59.061Z,4.90
2023-05-05T01:21:20.109Z,4.90
2023-05-05T01:21:41.191Z,5.20
2023-05-05T01:22:02.242Z,5.10
2023-05-05T01:22:23.293Z,5.20
2023-05-05T01:22:44.353Z,5.10
2023-05-05T01:23:05.641Z,5.00
2023-05-05T01:23:26.740Z,5.00
2023-05-05T01:23:47.773Z,5.00
2023-05-05T01:24:08.829Z,4.80
2023-05-05T01:24:29.893Z,5.00
2023-05-05T01:24:50.974Z,5.00
2023-05-05T01:25:12.026Z,5.10
2023-05-05T01:25:33.140Z,4.90
2023-05-05T01:25:54.187Z,4.70
2023-05-05T01:26:15.235Z,4.80
2023-05-05T01:26:36.312Z,5.10
2023-05-05T01:26:57.381Z,5.00
2023-05-05T01:27:18.465Z,4.80
2023-05-05T01:27:39.505Z,4.80
2023-05-05T01:28:00.563Z,5.00
2023-05-05T01:28:21.890Z,5.00
2023-05-05T01:28:42.984Z,5.10
2023-05-05T01:29:04.035Z,4.80
2023-05-05T01:29:25.087Z,4.80
2023-05-05T01:29:46.135Z,5.10
2023-05-05T01:30:07.469Z,5.50
2023-05-05T01:30:28.672Z,5.10
2023-05-05T01:30:49.723Z,5.00
2023-05-05T01:31:10.823Z,4.80
2023-05-05T01:31:31.951Z,5.00
2023-05-05T01:31:53.042Z,5.10
2023-05-05T01:32:14.146Z,5.10
2023-05-05T01:32:35.190Z,4.90
2023-05-05T01:32:56.261Z,5.00
2023-05-05T01:33:17.304Z,4.70
2023-05-05T01:33:38.409Z,5.10
2023-05-05T01:33:59.668Z,5.30
2023-05-05T01:34:20.725Z,5.30
2023-05-05T01:34:41.785Z,5.00
2023-05-05T01:35:02.849Z,5.20
2023-05-05T01:35:23.905Z,5.40
2023-05-05T01:35:45.182Z,5.40
2023-05-05T01:36:06.237Z,4.90
2023-05-05T01:36:27.307Z,5.00
2023-05-05T01:36:48.359Z,5.20
2023-05-05T01:37:09.456Z,5.50
2023-05-05T01:37:30.501Z,5.60
2023-05-05T01:37:51.568Z,5.30
2023-05-05T01:38:12.729Z,4.70
2023-05-05T01:38:33.769Z,5.10
2023-05-05T01:38:54.872Z,5.00
2023-05-05T01:39:15.960Z,5.20
2023-05-05T01:39:37.023Z,5.40
2023-05-05T01:39:58.073Z,5.20
2023-05-05T01:40:19.141Z,4.70
2023-05-05T01:40:40.219Z,4.90
2023-05-05T01:41:01.255Z,4.80
2023-05-05T01:41:22.315Z,5.10
2023-05-05T01:41:43.376Z,5.30
2023-05-05T01:42:04.410Z,5.30
2023-05-05T01:42:25.469Z,4.90
2023-05-05T01:42:46.547Z,5.00
2023-05-05T01:43:07.586Z,5.20
2023-05-05T01:43:28.644Z,5.10
2023-05-05T01:43:49.708Z,5.20
2023-05-05T01:44:11.033Z,5.30
2023-05-05T01:44:32.095Z,4.90
2023-05-05T01:44:53.148Z,5.10
2023-05-05T01:45:14.219Z,5.00
2023-05-05T01:45:35.264Z,5.10
2023-05-05T01:45:56.362Z,5.00
2023-05-05T01:46:17.470Z,5.40
2023-05-05T01:46:38.504Z,5.20
2023-05-05T01:46:59.563Z,5.10
2023-05-05T01:47:20.642Z,4.90
2023-05-05T01:47:41.695Z,4.90
2023-05-05T01:48:02.766Z,5.10
2023-05-05T01:48:23.775Z,5.00
2023-05-05T01:48:44.870Z,5.40
2023-05-05T01:49:05.923Z,5.10
2023-05-05T01:49:27.034Z,4.90
2023-05-05T01:49:48.145Z,4.90
2023-05-05T01:50:09.591Z,5.20
2023-05-05T01:50:30.801Z,5.50
2023-05-05T01:50:51.859Z,5.20
2023-05-05T01:51:12.924Z,5.60
2023-05-05T01:51:34.004Z,5.40
2023-05-05T01:51:55.025Z,5.40
2023-05-05T01:52:16.124Z,5.30
2023-05-05T01:52:37.139Z,5.60
2023-05-05T01:52:58.221Z,5.50
2023-05-05T01:53:19.269Z,5.40
2023-05-05T01:53:40.337Z,5.40
2023-05-05T01:54:01.432Z,5.50
2023-05-05T01:54:22.473Z,5.70
2023-05-05T01:54:43.572Z,5.60
2023-05-05T01:55:04.661Z,5.20
2023-05-05T01:55:25.741Z,4.90
2023-05-05T01:55:46.811Z,4.90
2023-05-05T01:56:07.880Z,5.30
2023-05-05T01:56:28.940Z,5.50
2023-05-05T01:56:50.025Z,5.50
2023-05-05T01:57:11.096Z,5.70
2023-05-05T01:57:32.158Z,5.60
2023-05-05T01:57:53.234Z,5.20
2023-05-05T01:58:14.293Z,4.90
2023-05-05T01:58:35.351Z,5.10
2023-05-05T01:58:56.411Z,5.10
2023-05-05T01:59:17.453Z,5.10
2023-05-05T01:59:38.548Z,5.10
2023-05-05T01:59:59.618Z,5.10
2023-05-05T02:00:20.882Z,5.10
2023-05-05T02:00:41.937Z,5.40
2023-05-05T02:01:03.047Z,5.70
2023-05-05T02:01:24.088Z,5.30
2023-05-05T02:01:45.175Z,5.00
2023-05-05T02:02:06.210Z,5.10
2023-05-05T02:02:27.299Z,5.30
2023-05-05T02:02:48.444Z,5.30
2023-05-05T02:03:09.625Z,5.70
2023-05-05T02:03:30.796Z,5.00
2023-05-05T02:03:51.826Z,5.20
2023-05-05T02:04:12.900Z,5.10
2023-05-05T02:04:33.976Z,5.20
2023-05-05T02:04:55.070Z,5.30
2023-05-05T02:05:16.343Z,5.50
2023-05-05T02:05:37.664Z,5.60
2023-05-05T02:05:58.705Z,5.20
2023-05-05T02:06:19.755Z,4.90
2023-05-05T02:06:40.813Z,5.20
2023-05-05T02:07:01.896Z,5.50
2023-05-05T02:07:22.953Z,5.40
2023-05-05T02:07:44.020Z,5.70
2023-05-05T02:08:05.055Z,5.10
2023-05-05T02:08:26.131Z,5.00
2023-05-05T02:08:47.189Z,5.10
2023-05-05T02:09:08.236Z,5.40
2023-05-05T02:09:29.332Z,5.70
2023-05-05T02:09:50.353Z,5.50
2023-05-05T02:10:11.401Z,5.10
2023-05-05T02:10:32.500Z,5.20
2023-05-05T02:10:53.603Z,5.20
2023-05-05T02:11:14.646Z,5.10
2023-05-05T02:11:35.708Z,5.60
2023-05-05T02:11:56.762Z,5.30
2023-05-05T02:12:17.841Z,5.00
2023-05-05T02:12:38.940Z,5.40
2023-05-05T02:13:00.027Z,5.30
2023-05-05T02:13:21.213Z,4.90
2023-05-05T02:13:42.384Z,5.50
2023-05-05T02:14:03.526Z,5.80
2023-05-05T02:14:24.574Z,5.40
2023-05-05T02:14:45.658Z,5.40
2023-05-05T02:15:06.748Z,5.10
2023-05-05T02:15:27.767Z,5.60
2023-05-05T02:15:49.061Z,5.20
2023-05-05T02:16:10.176Z,5.10
2023-05-05T02:16:31.249Z,4.80
2023-05-05T02:16:52.303Z,5.10
2023-05-05T02:17:13.362Z,5.20
2023-05-05T02:17:34.471Z,5.20
2023-05-05T02:17:55.575Z,5.10
2023-05-05T02:18:16.638Z,5.50
2023-05-05T02:18:37.699Z,4.90
2023-05-05T02:18:58.764Z,5.10
2023-05-05T02:19:19.811Z,5.50
2023-05-05T02:19:40.881Z,5.10
2023-05-05T02:20:01.956Z,5.10
2023-05-05T02:20:23.005Z,5.30
2023-05-05T02:20:44.076Z,5.60
2023-05-05T02:21:05.186Z,5.20
2023-05-05T02:21:26.307Z,5.20
2023-05-05T02:21:47.373Z,5.30
2023-05-05T02:22:08.422Z,5.30
2023-05-05T02:22:29.485Z,5.50
2023-05-05T02:22:50.539Z,5.30
2023-05-05T02:23:11.606Z,5.30
2023-05-05T02:23:32.709Z,5.70
2023-05-05T02:23:53.769Z,5.10
2023-05-05T02:24:14.822Z,5.40
2023-05-05T02:24:35.879Z,5.50
2023-05-05T02:24:56.954Z,5.10
2023-05-05T02:25:18.018Z,5.20
2023-05-05T02:25:39.066Z,5.10
2023-05-05T02:26:00.136Z,5.30
2023-05-05T02:26:21.230Z,5.60
2023-05-05T02:26:42.298Z,5.60
2023-05-05T02:27:03.375Z,5.70
2023-05-05T02:27:24.458Z,5.70
2023-05-05T02:27:45.480Z,5.20
2023-05-05T02:28:06.550Z,5.30
2023-05-05T02:28:27.605Z,5.50
2023-05-05T02:28:48.709Z,5.30
2023-05-05T02:29:09.729Z,5.60
2023-05-05T02:29:30.813Z,5.50
2023-05-05T02:29:51.861Z,5.40
2023-05-05T02:30:13.112Z,5.70
2023-05-05T02:30:34.174Z,5.80
2023-05-05T02:30:55.236Z,5.70
2023-05-05T02:31:16.301Z,5.40
2023-05-05T02:31:37.574Z,5.20
2023-05-05T02:31:58.858Z,5.90
2023-05-05T02:32:19.916Z,5.80
2023-05-05T02:32:41.087Z,5.60
2023-05-05T02:33:02.250Z,5.50
2023-05-05T02:33:23.301Z,5.70
2023-05-05T02:33:44.355Z,5.70
2023-05-05T02:34:05.412Z,5.60
2023-05-05T02:34:26.469Z,5.60
2023-05-05T02:34:47.518Z,5.60
2023-05-05T02:35:08.587Z,5.90
2023-05-05T02:35:29.649Z,5.90
2023-05-05T02:35:50.697Z,5.50
2023-05-05T02:36:11.749Z,5.30
2023-05-05T02:36:32.808Z,5.50
2023-05-05T02:36:54.081Z,5.40
2023-05-05T02:37:15.347Z,5.50
2023-05-05T02:37:36.403Z,5.30
2023-05-05T02:37:57.446Z,5.10
2023-05-05T02:38:18.513Z,5.00
2023-05-05T02:38:39.559Z,5.50
2023-05-05T02:39:00.618Z,5.30
2023-05-05T02:39:21.680Z,5.40
2023-05-05T02:39:42.735Z,5.60
2023-05-05T02:40:03.795Z,5.60
2023-05-05T02:40:24.856Z,5.40
2023-05-05T02:40:45.909Z,5.20
2023-05-05T02:41:07.001Z,5.30
2023-05-05T02:41:28.039Z,5.60
2023-05-05T02:41:49.087Z,5.40
2023-05-05T02:42:10.192Z,5.30
2023-05-05T02:42:31.292Z,5.30
2023-05-05T02:42:52.385Z,5.30
2023-05-05T02:43:13.483Z,5.20
2023-05-05T02:43:34.530Z,5.40
2023-05-05T02:43:55.588Z,5.30
2023-05-05T02:44:16.692Z,5.80
2023-05-05T02:44:37.739Z,5.10
2023-05-05T02:44:58.794Z,5.40
2023-05-05T02:45:19.881Z,5.40
2023-05-05T02:45:40.928Z,5.30
2023-05-05T02:46:02.001Z,5.50
2023-05-05T02:46:23.081Z,5.30
2023-05-05T02:46:44.179Z,5.40
2023-05-05T02:47:05.239Z,5.40
2023-05-05T02:47:26.349Z,5.60
2023-05-05T02:47:47.677Z,5.60
2023-05-05T02:48:08.794Z,5.90
2023-05-05T02:48:29.847Z,5.20
2023-05-05T02:48:50.904Z,5.60
2023-05-05T02:49:11.927Z,5.40
2023-05-05T02:49:32.985Z,5.60
2023-05-05T02:49:54.077Z,5.40
2023-05-05T02:50:15.119Z,5.50
2023-05-05T02:50:36.182Z,6.10
2023-05-05T02:50:57.251Z,5.70
2023-05-05T02:51:18.313Z,5.30
2023-05-05T02:51:39.376Z,5.30
2023-05-05T02:52:00.413Z,5.70
2023-05-05T02:52:21.472Z,5.60
2023-05-05T02:52:42.565Z,5.60
2023-05-05T02:53:03.827Z,5.50
2023-05-05T02:53:24.939Z,5.70
2023-05-05T02:53:45.994Z,5.40
2023-05-05T02:54:07.096Z,5.50
2023-05-05T02:54:28.121Z,6.10
2023-05-05T02:54:49.179Z,5.90
2023-05-05T02:55:10.245Z,5.40
2023-05-05T02:55:31.299Z,5.50
2023-05-05T02:55:52.375Z,5.70
2023-05-05T02:56:13.449Z,5.80
2023-05-05T02:56:34.492Z,5.70
2023-05-05T02:56:55.555Z,5.80
2023-05-05T02:57:16.592Z,5.50
2023-05-05T02:57:37.643Z,5.40
2023-05-05T02:57:58.752Z,5.70
2023-05-05T02:58:20.026Z,5.90
2023-05-05T02:58:41.098Z,5.80
2023-05-05T02:59:02.155Z,5.50
2023-05-05T02:59:23.228Z,5.60
2023-05-05T02:59:44.244Z,5.70
2023-05-05T03:00:05.613Z,5.70
2023-05-05T03:00:26.819Z,5.40
2023-05-05T03:00:47.876Z,5.60
2023-05-05T03:01:08.961Z,5.90
2023-05-05T03:01:30.009Z,6.00
2023-05-05T03:01:51.284Z,5.60
2023-05-05T03:02:12.417Z,5.60
2023-05-05T03:02:33.521Z,6.00
2023-05-05T03:02:54.666Z,5.80
2023-05-05T03:03:15.933Z,6.00
2023-05-05T03:03:37.167Z,6.10
2023-05-05T03:03:58.295Z,5.80
2023-05-05T03:04:19.357Z,5.80
2023-05-05T03:04:40.411Z,5.80
2023-05-05T03:05:01.466Z,5.70
2023-05-05T03:05:22.536Z,5.60
2023-05-05T03:05:43.580Z,5.50
2023-05-05T03:06:04.636Z,5.60
2023-05-05T03:06:25.701Z,5.30
2023-05-05T03:06:46.765Z,5.40
2023-05-05T03:07:07.814Z,5.70
2023-05-05T03:07:28.866Z,6.10
2023-05-05T03:07:49.919Z,5.70
2023-05-05T03:08:10.981Z,5.70
2023-05-05T03:08:32.294Z,6.00
2023-05-05T03:08:53.395Z,5.90
2023-05-05T03:09:14.438Z,6.00
2023-05-05T03:09:35.479Z,5.60
2023-05-05T03:09:56.530Z,5.50
2023-05-05T03:10:17.643Z,6.10
2023-05-05T03:10:38.668Z,6.20
2023-05-05T03:10:59.736Z,5.90
2023-05-05T03:11:20.811Z,5.60
2023-05-05T03:11:41.855Z,5.60
2023-05-05T03:12:02.917Z,5.00
2023-05-05T03:12:23.982Z,5.70
2023-05-05T03:12:45.094Z,5.60
2023-05-05T03:13:06.168Z,5.60
2023-05-05T03:13:27.203Z,5.40
2023-05-05T03:13:48.485Z,5.30
2023-05-05T03:14:09.766Z,5.70
2023-05-05T03:14:33.308Z,5.60
2023-05-05T03:14:54.474Z,6.10
2023-05-05T03:15:15.547Z,5.60
2023-05-05T03:15:36.615Z,5.60
2023-05-05T03:15:57.672Z,5.70
2023-05-05T03:16:18.719Z,5.60
2023-05-05T03:16:39.838Z,5.90
2023-05-05T03:17:00.971Z,5.60
2023-05-05T03:17:22.046Z,5.20
2023-05-05T03:17:43.227Z,5.20
2023-05-05T03:18:04.344Z,5.80
2023-05-05T03:18:25.407Z,5.70
2023-05-05T03:18:46.465Z,5.70
2023-05-05T03:19:07.567Z,5.70
2023-05-05T03:19:28.642Z,5.70
2023-05-05T03:19:49.708Z,5.30
2023-05-05T03:20:10.749Z,5.50
2023-05-05T03:20:31.807Z,6.00
2023-05-05T03:20:52.864Z,5.80
2023-05-05T03:21:13.936Z,5.90
2023-05-05T03:21:34.977Z,5.40
2023-05-05T03:21:56.055Z,6.00
2023-05-05T03:22:17.095Z,5.30
2023-05-05T03:22:38.148Z,5.20
2023-05-05T03:22:59.219Z,5.50
2023-05-05T03:23:20.286Z,5.40
2023-05-05T03:23:41.330Z,5.60
2023-05-05T03:24:02.412Z,5.70
2023-05-05T03:24:23.671Z,6.00
2023-05-05T03:24:44.797Z,5.40
2023-05-05T03:25:05.837Z,5.40
2023-05-05T03:25:26.913Z,5.30
2023-05-05T03:25:47.981Z,5.30
2023-05-05T03:26:09.002Z,5.40
2023-05-05T03:26:30.078Z,6.00
2023-05-05T03:26:51.157Z,5.70
2023-05-05T03:27:12.218Z,5.70
2023-05-05T03:27:33.234Z,5.90
2023-05-05T03:27:54.290Z,5.70
2023-05-05T03:28:15.346Z,5.90
2023-05-05T03:28:36.430Z,5.70
2023-05-05T03:28:57.478Z,5.70
2023-05-05T03:29:18.524Z,5.60
2023-05-05T03:29:39.626Z,5.40
2023-05-05T03:30:00.909Z,5.70
2023-05-05T03:30:21.982Z,5.80
2023-05-05T03:30:43.043Z,5.80
2023-05-05T03:31:04.106Z,5.50
2023-05-05T03:31:25.159Z,5.60
2023-05-05T03:31:46.244Z,5.70
2023-05-05T03:32:07.413Z,5.70
2023-05-05T03:32:28.497Z,6.00
2023-05-05T03:32:49.562Z,5.70
2023-05-05T03:33:10.632Z,5.90
2023-05-05T03:33:31.671Z,5.80
2023-05-05T03:33:52.742Z,5.50
2023-05-05T03:34:13.841Z,5.40
2023-05-05T03:34:34.871Z,5.90
2023-05-05T03:34:56.147Z,5.80
2023-05-05T03:35:17.250Z,5.90
2023-05-05T03:35:38.318Z,5.80
2023-05-05T03:35:59.360Z,5.60
2023-05-05T03:36:20.420Z,5.90
2023-05-05T03:36:41.482Z,6.10
2023-05-05T03:37:02.606Z,5.60
2023-05-05T03:37:23.626Z,5.50
2023-05-05T03:37:44.685Z,5.90
2023-05-05T03:38:05.785Z,6.10
2023-05-05T03:38:26.812Z,6.30
2023-05-05T03:38:47.881Z,5.70
2023-05-05T03:39:08.936Z,5.60
2023-05-05T03:39:29.987Z,5.90
2023-05-05T03:39:51.046Z,6.40
2023-05-05T03:40:12.142Z,6.00
2023-05-05T03:40:43.471Z,5.90
2023-05-05T03:41:00.202Z,6.00
2023-05-05T03:41:21.314Z,5.60
2023-05-05T03:41:42.420Z,5.80
2023-05-05T03:42:03.468Z,5.80
2023-05-05T03:42:24.516Z,6.00
2023-05-05T03:42:45.577Z,6.10
2023-05-05T03:43:06.706Z,6.20
2023-05-05T03:43:27.767Z,6.30
2023-05-05T03:43:48.809Z,6.50
2023-05-05T03:44:09.873Z,5.80
2023-05-05T03:44:30.945Z,5.70
2023-05-05T03:44:52.010Z,6.00
2023-05-05T03:45:13.090Z,6.20
2023-05-05T03:45:34.209Z,6.10
2023-05-05T03:45:55.267Z,5.80
2023-05-05T03:46:16.456Z,5.90
2023-05-05T03:46:37.515Z,5.70
2023-05-05T03:46:58.576Z,6.00
2023-05-05T03:47:19.627Z,6.00
2023-05-05T03:47:40.730Z,6.10
2023-05-05T03:48:01.789Z,5.90
2023-05-05T03:48:22.872Z,5.70
2023-05-05T03:48:43.935Z,5.80
2023-05-05T03:49:04.979Z,5.90
2023-05-05T03:49:26.075Z,5.60
2023-05-05T03:49:47.109Z,6.00
2023-05-05T03:50:08.368Z,6.00
2023-05-05T03:50:29.799Z,5.70
2023-05-05T03:50:51.065Z,6.00
2023-05-05T03:51:12.140Z,6.40
2023-05-05T03:51:33.245Z,5.90
2023-05-05T03:51:54.263Z,6.20
2023-05-05T03:52:15.359Z,6.20
2023-05-05T03:52:36.398Z,6.30
2023-05-05T03:52:57.458Z,6.00
2023-05-05T03:53:18.515Z,5.80
2023-05-05T03:53:39.573Z,5.80
2023-05-05T03:54:00.637Z,6.10
2023-05-05T03:54:21.715Z,5.60
2023-05-05T03:54:42.763Z,5.80
2023-05-05T03:55:03.833Z,5.80
2023-05-05T03:55:24.900Z,5.70
2023-05-05T03:55:46.156Z,5.60
2023-05-05T03:56:07.261Z,6.00
2023-05-05T03:56:28.324Z,5.40
2023-05-05T03:56:49.370Z,5.40
2023-05-05T03:57:10.417Z,5.90
2023-05-05T03:57:31.469Z,5.80
2023-05-05T03:57:52.527Z,6.10
2023-05-05T03:58:13.608Z,6.30
2023-05-05T03:58:34.681Z,6.00
2023-05-05T03:58:55.711Z,6.10
2023-05-05T03:59:16.762Z,5.80
2023-05-05T03:59:37.821Z,5.90
2023-05-05T03:59:58.874Z,5.70
2023-05-05T04:00:19.929Z,5.50
2023-05-05T04:00:40.998Z,5.80
2023-05-05T04:01:02.290Z,5.70
2023-05-05T04:01:23.423Z,5.90
2023-05-05T04:01:44.451Z,6.10
2023-05-05T04:02:05.559Z,5.80
2023-05-05T04:02:26.638Z,5.90
2023-05-05T04:02:47.792Z,5.70
2023-05-05T04:03:09.020Z,6.30
2023-05-05T04:03:30.275Z,6.70
2023-05-05T04:03:51.431Z,6.30
2023-05-05T04:04:12.637Z,5.80
2023-05-05T04:04:33.770Z,5.90
2023-05-05T04:04:54.807Z,5.60
2023-05-05T04:05:15.885Z,5.50
2023-05-05T04:05:36.929Z,5.90
2023-05-05T04:05:57.991Z,5.60
2023-05-05T04:06:19.084Z,5.80
2023-05-05T04:06:40.377Z,5.60
2023-05-05T04:07:01.418Z,6.20
2023-05-05T04:07:22.465Z,5.90
2023-05-05T04:07:43.548Z,5.90
2023-05-05T04:08:04.597Z,6.00
2023-05-05T04:08:25.641Z,6.30
2023-05-05T04:08:46.771Z,6.10
2023-05-05T04:09:07.778Z,5.60
2023-05-05T04:09:28.847Z,5.90
2023-05-05T04:09:49.923Z,5.80
2023-05-05T04:10:11.016Z,5.60
2023-05-05T04:10:32.036Z,5.70
2023-05-05T04:10:53.111Z,5.90
2023-05-05T04:11:14.168Z,6.30
2023-05-05T04:11:35.271Z,6.00
2023-05-05T04:11:56.367Z,5.80
2023-05-05T04:12:17.422Z,5.80
2023-05-05T04:12:38.524Z,5.90
2023-05-05T04:12:59.573Z,5.50
2023-05-05T04:13:20.634Z,6.00
2023-05-05T04:13:41.687Z,6.10
2023-05-05T04:14:02.756Z,6.30
2023-05-05T04:14:23.845Z,6.00
2023-05-05T04:14:44.887Z,5.80
2023-05-05T04:15:05.939Z,6.00
2023-05-05T04:15:26.991Z,6.30
2023-05-05T04:15:48.097Z,6.20
2023-05-05T04:16:09.174Z,6.00
2023-05-05T04:16:30.348Z,5.80
2023-05-05T04:16:51.458Z,5.50
2023-05-05T04:17:12.741Z,6.00
2023-05-05T04:17:33.860Z,6.30
2023-05-05T04:17:54.942Z,6.60
2023-05-05T04:18:15.962Z,5.90
2023-05-05T04:18:37.038Z,6.00
2023-05-05T04:18:58.086Z,6.00
2023-05-05T04:19:19.138Z,6.20
2023-05-05T04:19:40.206Z,6.30
2023-05-05T04:20:01.275Z,6.50
2023-05-05T04:20:22.342Z,6.10
2023-05-05T04:20:43.478Z,6.30
2023-05-05T04:21:04.538Z,6.30
2023-05-05T04:21:25.597Z,6.20
2023-05-05T04:21:46.645Z,5.80
2023-05-05T04:22:07.915Z,5.90
2023-05-05T04:22:29.183Z,5.90
2023-05-05T04:22:52.624Z,5.80
2023-05-05T04:23:13.885Z,6.10
2023-05-05T04:23:34.934Z,6.30
2023-05-05T04:23:56.021Z,6.30
2023-05-05T04:24:17.063Z,6.10
2023-05-05T04:24:38.129Z,6.00
2023-05-05T04:24:59.228Z,6.00
2023-05-05T04:25:20.244Z,5.80
2023-05-05T04:25:41.303Z,6.10
2023-05-05T04:26:02.357Z,6.10
2023-05-05T04:26:23.420Z,5.90
2023-05-05T04:26:44.474Z,6.10
2023-05-05T04:27:05.552Z,6.40
2023-05-05T04:27:26.621Z,6.00
2023-05-05T04:27:47.686Z,6.00
2023-05-05T04:28:08.734Z,6.20
2023-05-05T04:28:29.793Z,6.30
2023-05-05T04:28:50.880Z,6.40
2023-05-05T04:29:11.909Z,6.50
2023-05-05T04:29:32.974Z,6.10
2023-05-05T04:29:54.023Z,6.20
2023-05-05T04:30:15.079Z,6.20
2023-05-05T04:30:36.162Z,6.40
2023-05-05T04:30:57.232Z,6.30
2023-05-05T04:31:18.329Z,5.90
2023-05-05T04:31:39.421Z,6.20
2023-05-05T04:32:00.487Z,6.10
2023-05-05T04:32:21.582Z,6.00
2023-05-05T04:32:42.693Z,6.40
2023-05-05T04:33:04.004Z,6.20
2023-05-05T04:33:25.056Z,5.80
2023-05-05T04:33:46.122Z,6.40
2023-05-05T04:34:07.182Z,6.40
2023-05-05T04:34:28.236Z,6.30
2023-05-05T04:34:49.301Z,6.00
2023-05-05T04:35:10.357Z,6.20
2023-05-05T04:35:31.416Z,6.20
2023-05-05T04:35:52.485Z,6.30
2023-05-05T04:36:13.532Z,6.10
2023-05-05T04:36:34.606Z,6.10
2023-05-05T04:36:55.652Z,6.40
2023-05-05T04:37:16.725Z,6.60
2023-05-05T04:37:37.754Z,6.00
2023-05-05T04:37:59.037Z,5.80
2023-05-05T04:38:20.341Z,6.50
2023-05-05T04:38:41.397Z,6.00
2023-05-05T04:39:02.502Z,6.00
2023-05-05T04:39:23.546Z,6.00
2023-05-05T04:39:44.607Z,6.50
2023-05-05T04:40:05.739Z,6.40
2023-05-05T04:40:26.864Z,5.60
2023-05-05T04:40:47.945Z,6.10
2023-05-05T04:41:08.994Z,6.50